Gothenburg, NE (69138)

2:54 AM CST on December 10, 2016 (GMT -0600)
KNEGOTHE4 | | Change Station

Elev 2572 ft 40.92 °N, 100.17 °W | Updated 4 minutes ago

Overcast
Overcast
17.2 °F
Feels Like 17 °F
N
2.0
Wind Variable Wind from East
Gusts 2.0 mph

Today
High -- | Low -- °F
--% Chance of Precip.
Yesterday
High -- | Low -- °F
Precip. -- in
Pressure 30.28 in
Visibility 10.0 miles
Clouds Overcast 6000 ft
Windchill 17 °F
Dew Point 12 °F
Humidity 80%
Rainfall 0.00 in
Snow Depth Not available.
7:54 AM 5:12 PM
Waxing Gibbous, 82% visible
METAR KLXN 100835Z AUTO 12007KT 10SM OVC060 M08/M11 A3028 RMK AO2 T10781107
Pressure 30.28 in
Visibility 10.0 miles
Clouds Overcast 6000 ft
Windchill 17 °F
Dew Point 12 °F
Humidity 80%
Rainfall 0.00 in
Snow Depth Not available.
7:54 AM 5:12 PM
Waxing Gibbous, 82% visible
METAR KLXN 100835Z AUTO 12007KT 10SM OVC060 M08/M11 A3028 RMK AO2 T10781107

10-Day Weather Forecast

Almanac

Astronomy

Dec. 10, 2016 Rise Set
Actual Time
Civil Twilight
Nautical Twilight
Astronomical Twilight
Moon
Length of Visible Light
Length of Day
Tomorrow will be .
, % of the Moon is Illuminated

Today's Extremes

State Highs State Lows

Community

WunderPhotos

Upload Photos

1,956,538 photos uploaded!

WunderBlog® & News

Nearby

Air Quality

  Air Quality AQ Index Pollutant
Not available.

Snow Depth

Station Depth Elevation

Earthquake Activity

City Distance Mag. Time & Date
Minimum magnitude displayed is 2.5.

Coastal Water Temperatures

Place Temperature

Stations

Nearby Weather Stations

Station Location Temp. Windchill Dew Point Humidity Wind Precip. Elev Updated Type
                   

Watches & Warnings

There are currently no watches in effect.